aviador You're here:

UKLL Decoded Metar

LVOV in UKRAINE
Report Time2018-07-18 20:00:00
UTC Time2018-07-18 20:18:36
Flight Rules vfr VFR
Wind300° at 4 kt
W.Decomp.*RWY 31: 3.9 kt HW 0.9 kt LCW
W.Rank300° ranks 8
Current wind is below 300° avg. (7.5)
Visibility9000 m
Phenomena:N/A
Clouds:N/A
Expected CloudBase > 800 ft AGL from Temp-Dew spread
CeilingNone
Temp20°C (ISA +7)
Dew Point18°C (88% RH)
QNH1005 hPa
Density Alt2,448 ft
Elevation1,066 ft
Report Wrong Elevation
Raw Report
METAR UKLL 182000Z 30002MPS 9000 NSC 20/18 Q1005 R31/D NOSIG=

Extra information for UKLL:More info

Metar Taf Metar & Taf Last 4 Metars F.Rules Stats Wind Profile Meteogram Temp Stats Airport Information Weather charts Add Link Nearby VenuesMetar ALERT Operation Metar Decoded Social comments